Time;durP1;ratioP1;P1;durP2;ratioP2;P2;SDS_P1;SDS_P2;PMS_P1;PMS_P2;Temp;Humidity;BMP_temperature;BMP_pressure;BME280_temperature;BME280_humidity;BME280_pressure;Samples;Min_cycle;Max_cycle;Signal;HPM_P1;HPM_P2
2022/08/31 00:03:59;;;;;;;;;7.00;7.00;;;;;;;;5068243;27;51418;-48
2022/08/31 00:06:25;;;;;;;;;7.67;6.67;;;;;;;;5079739;27;52303;-50
2022/08/31 00:08:51;;;;;;;;;7.00;7.00;;;;;;;;5058694;27;51382;-47
2022/08/31 00:11:17;;;;;;;;;7.00;6.67;;;;;;;;5078834;27;51044;-48
2022/08/31 00:13:42;;;;;;;;;7.33;7.00;;;;;;;;5075118;27;51219;-46
2022/08/31 00:16:08;;;;;;;;;5.00;5.00;;;;;;;;5075411;27;51932;-49
2022/08/31 00:18:33;;;;;;;;;8.00;8.00;;;;;;;;5078781;27;50912;-49
2022/08/31 00:20:58;;;;;;;;;6.33;6.33;;;;;;;;5072072;28;50968;-48
2022/08/31 00:23:24;;;;;;;;;8.33;8.33;;;;;;;;5068308;27;51068;-50
2022/08/31 00:25:49;;;;;;;;;7.67;7.00;;;;;;;;5065575;27;51127;-51
2022/08/31 00:28:15;;;;;;;;;7.67;7.33;;;;;;;;5083666;27;50983;-48
2022/08/31 00:30:41;;;;;;;;;7.33;7.33;;;;;;;;5074291;27;50921;-48
2022/08/31 00:33:07;;;;;;;;;7.00;7.00;;;;;;;;5065361;27;51217;-50
2022/08/31 00:35:34;;;;;;;;;8.00;7.00;;;;;;;;5071469;28;52237;-49
2022/08/31 00:38:00;;;;;;;;;7.33;7.00;;;;;;;;5071451;28;51137;-49
2022/08/31 00:40:25;;;;;;;;;5.00;4.33;;;;;;;;5071580;27;51048;-48
2022/08/31 00:42:51;;;;;;;;;6.33;6.00;;;;;;;;5076663;27;51288;-48
2022/08/31 00:45:16;;;;;;;;;7.33;7.33;;;;;;;;5071875;28;51833;-52
2022/08/31 00:47:41;;;;;;;;;5.00;5.00;;;;;;;;5071792;28;50966;-50
2022/08/31 00:50:08;;;;;;;;;6.67;6.33;;;;;;;;5074457;27;50973;-55
2022/08/31 00:52:35;;;;;;;;;6.67;6.67;;;;;;;;5078819;27;51032;-51
2022/08/31 00:55:03;;;;;;;;;6.67;5.67;;;;;;;;5073160;27;51904;-48
2022/08/31 00:57:32;;;;;;;;;7.00;6.33;;;;;;;;5074607;27;51021;-46
2022/08/31 00:59:59;;;;;;;;;6.67;6.00;;;;;;;;5085687;27;51143;-47
2022/08/31 01:02:24;;;;;;;;;6.00;6.00;;;;;;;;5077161;27;51111;-48
2022/08/31 01:04:49;;;;;;;;;5.00;5.00;;;;;;;;5069074;27;51269;-47
2022/08/31 01:07:15;;;;;;;;;8.33;8.00;;;;;;;;5068168;28;50997;-50
2022/08/31 01:09:41;;;;;;;;;6.00;6.00;;;;;;;;5075049;28;50884;-53
2022/08/31 01:12:07;;;;;;;;;7.00;7.00;;;;;;;;5086530;27;51032;-50
2022/08/31 01:14:33;;;;;;;;;7.67;7.67;;;;;;;;5076169;27;50949;-51
2022/08/31 01:16:59;;;;;;;;;6.00;6.00;;;;;;;;5081079;27;51103;-52
2022/08/31 01:19:30;;;;;;;;;5.00;5.00;;;;;;;;5074889;28;50976;-51
2022/08/31 01:22:01;;;;;;;;;6.00;5.00;;;;;;;;5070262;27;50898;-47
2022/08/31 01:24:27;;;;;;;;;4.33;4.00;;;;;;;;5077713;27;52948;-51
2022/08/31 01:26:53;;;;;;;;;6.00;6.00;;;;;;;;5079456;27;51053;-50
2022/08/31 01:29:18;;;;;;;;;6.00;5.00;;;;;;;;5073663;27;51120;-50
2022/08/31 01:31:45;;;;;;;;;6.33;6.33;;;;;;;;5073973;28;51098;-49
2022/08/31 01:34:11;;;;;;;;;6.00;6.00;;;;;;;;5073138;27;52472;-47
2022/08/31 01:36:38;;;;;;;;;6.00;6.00;;;;;;;;5074885;27;51014;-52
2022/08/31 01:39:04;;;;;;;;;6.00;6.00;;;;;;;;5072927;27;51105;-50
2022/08/31 01:41:30;;;;;;;;;6.67;6.33;;;;;;;;5078782;27;51171;-51
2022/08/31 01:43:55;;;;;;;;;6.33;6.00;;;;;;;;5073261;27;51779;-51
2022/08/31 01:46:21;;;;;;;;;8.00;7.00;;;;;;;;5062822;27;51141;-52
2022/08/31 01:48:47;;;;;;;;;5.00;5.00;;;;;;;;5091023;27;51022;-47
2022/08/31 01:51:14;;;;;;;;;5.33;5.33;;;;;;;;5071139;27;51065;-50
2022/08/31 01:53:39;;;;;;;;;8.00;6.67;;;;;;;;5074178;27;51852;-47
2022/08/31 01:56:09;;;;;;;;;6.00;6.00;;;;;;;;5080840;27;51098;-48
2022/08/31 01:58:35;;;;;;;;;7.00;5.67;;;;;;;;5085081;27;51011;-47
2022/08/31 02:01:00;;;;;;;;;6.00;6.00;;;;;;;;5075774;27;50999;-53
2022/08/31 02:03:25;;;;;;;;;7.00;6.00;;;;;;;;5074965;27;52286;-50
2022/08/31 02:05:50;;;;;;;;;5.00;5.00;;;;;;;;5081005;27;51028;-49
2022/08/31 02:08:15;;;;;;;;;5.67;5.67;;;;;;;;5071446;27;51157;-49
2022/08/31 02:10:41;;;;;;;;;6.00;6.00;;;;;;;;5075691;27;51387;-50
2022/08/31 02:13:06;;;;;;;;;6.67;6.00;;;;;;;;5078836;27;51191;-52
2022/08/31 02:15:31;;;;;;;;;6.67;6.00;;;;;;;;5076596;27;51118;-50
2022/08/31 02:17:57;;;;;;;;;7.00;6.33;;;;;;;;5070391;27;51160;-48
2022/08/31 02:20:22;;;;;;;;;7.00;7.00;;;;;;;;5073778;27;51167;-48
2022/08/31 02:22:47;;;;;;;;;6.00;6.00;;;;;;;;5073012;27;54093;-50
2022/08/31 02:25:13;;;;;;;;;7.00;7.00;;;;;;;;5079551;27;51246;-47
2022/08/31 02:27:38;;;;;;;;;7.33;7.00;;;;;;;;5073255;27;50977;-51
2022/08/31 02:30:05;;;;;;;;;7.00;6.00;;;;;;;;5061856;28;50922;-47
2022/08/31 02:32:31;;;;;;;;;6.00;6.00;;;;;;;;5069152;27;52244;-57
2022/08/31 02:34:56;;;;;;;;;5.67;5.67;;;;;;;;5053176;27;50883;-50
2022/08/31 02:37:21;;;;;;;;;6.00;5.67;;;;;;;;5068906;27;50935;-49
2022/08/31 02:39:46;;;;;;;;;6.00;6.00;;;;;;;;5088966;27;51338;-47
2022/08/31 02:42:11;;;;;;;;;6.33;6.33;;;;;;;;5079206;27;51134;-49
2022/08/31 02:44:37;;;;;;;;;8.33;7.00;;;;;;;;5075171;27;50937;-49
2022/08/31 02:47:02;;;;;;;;;6.33;6.33;;;;;;;;5059582;27;51211;-48
2022/08/31 02:49:27;;;;;;;;;6.67;6.67;;;;;;;;5067598;28;51328;-49
2022/08/31 02:51:53;;;;;;;;;6.67;6.67;;;;;;;;5073338;27;50887;-46
2022/08/31 02:54:18;;;;;;;;;7.00;7.00;;;;;;;;5086403;27;50850;-50
2022/08/31 02:56:43;;;;;;;;;5.33;5.00;;;;;;;;5071386;27;51118;-50
2022/08/31 02:59:08;;;;;;;;;5.33;5.33;;;;;;;;5082533;27;51353;-48
2022/08/31 03:01:34;;;;;;;;;7.67;6.00;;;;;;;;5073051;27;51092;-49
2022/08/31 03:03:59;;;;;;;;;6.00;6.00;;;;;;;;5060362;27;50953;-49
2022/08/31 03:06:25;;;;;;;;;7.00;6.00;;;;;;;;5070386;27;51105;-46
2022/08/31 03:08:50;;;;;;;;;8.00;8.00;;;;;;;;5065994;27;51421;-48
2022/08/31 03:11:16;;;;;;;;;7.33;7.00;;;;;;;;5076473;27;50970;-49
2022/08/31 03:13:41;;;;;;;;;6.00;6.00;;;;;;;;5072354;27;51131;-52
2022/08/31 03:16:07;;;;;;;;;10.00;9.00;;;;;;;;5067430;27;51089;-50
2022/08/31 03:18:32;;;;;;;;;7.33;6.00;;;;;;;;5072906;28;51295;-48
2022/08/31 03:20:58;;;;;;;;;6.00;6.00;;;;;;;;5072365;28;52981;-49
2022/08/31 03:23:23;;;;;;;;;6.33;6.33;;;;;;;;5077280;27;51003;-50
2022/08/31 03:25:48;;;;;;;;;6.00;6.00;;;;;;;;5066211;27;51553;-51
2022/08/31 03:28:14;;;;;;;;;5.67;5.67;;;;;;;;5076778;27;51052;-48
2022/08/31 03:30:40;;;;;;;;;7.33;6.67;;;;;;;;5081281;27;52123;-47
2022/08/31 03:33:05;;;;;;;;;6.00;6.00;;;;;;;;5070908;27;51055;-49
2022/08/31 03:35:30;;;;;;;;;7.00;6.67;;;;;;;;5055634;27;51418;-50
2022/08/31 03:37:56;;;;;;;;;7.00;7.00;;;;;;;;5063537;28;51265;-52
2022/08/31 03:40:21;;;;;;;;;7.00;5.67;;;;;;;;5072418;28;52742;-50
2022/08/31 03:42:47;;;;;;;;;7.00;7.00;;;;;;;;5074132;27;51073;-50
2022/08/31 03:45:12;;;;;;;;;7.67;7.00;;;;;;;;5072700;27;51163;-47
2022/08/31 03:47:38;;;;;;;;;8.67;7.67;;;;;;;;5072590;28;50922;-49
2022/08/31 03:50:04;;;;;;;;;7.00;6.00;;;;;;;;5059434;28;51216;-46
2022/08/31 03:52:30;;;;;;;;;5.67;5.67;;;;;;;;5078204;27;51025;-48
2022/08/31 03:54:55;;;;;;;;;6.00;6.00;;;;;;;;5081529;27;51095;-48
2022/08/31 03:57:20;;;;;;;;;7.33;7.33;;;;;;;;5079436;27;51403;-47
2022/08/31 03:59:45;;;;;;;;;7.33;7.00;;;;;;;;5062681;27;51248;-47
2022/08/31 04:02:10;;;;;;;;;7.67;6.00;;;;;;;;5077357;27;51126;-50
2022/08/31 04:04:35;;;;;;;;;5.67;5.67;;;;;;;;5077846;27;51121;-49
2022/08/31 04:07:01;;;;;;;;;8.00;8.00;;;;;;;;5072617;27;50984;-48
2022/08/31 04:09:26;;;;;;;;;6.00;5.33;;;;;;;;5070715;28;51293;-49
2022/08/31 04:11:52;;;;;;;;;7.00;7.00;;;;;;;;5069548;28;51355;-51
2022/08/31 04:14:17;;;;;;;;;6.00;5.67;;;;;;;;5073092;27;51186;-47
2022/08/31 04:16:43;;;;;;;;;7.00;6.33;;;;;;;;5072374;27;51391;-49
2022/08/31 04:19:10;;;;;;;;;6.67;6.67;;;;;;;;5070380;28;51135;-48
2022/08/31 04:21:35;;;;;;;;;6.67;6.00;;;;;;;;5071136;27;50999;-50
2022/08/31 04:24:01;;;;;;;;;9.33;8.67;;;;;;;;5073676;27;50977;-48
2022/08/31 04:26:28;;;;;;;;;5.67;5.67;;;;;;;;5067761;27;51230;-47
2022/08/31 04:28:53;;;;;;;;;8.00;8.00;;;;;;;;5074123;27;51497;-50
2022/08/31 04:31:19;;;;;;;;;7.33;7.00;;;;;;;;5074918;27;51163;-49
2022/08/31 04:33:45;;;;;;;;;8.00;7.33;;;;;;;;5072350;27;51229;-49
2022/08/31 04:36:12;;;;;;;;;7.33;7.33;;;;;;;;5072754;27;51075;-47
2022/08/31 04:38:39;;;;;;;;;9.00;8.00;;;;;;;;5072511;27;52186;-46
2022/08/31 04:41:08;;;;;;;;;7.33;7.33;;;;;;;;5075335;28;50869;-50
2022/08/31 04:43:33;;;;;;;;;9.67;8.33;;;;;;;;5075883;27;51460;-47
2022/08/31 04:45:59;;;;;;;;;7.00;7.00;;;;;;;;5082164;27;51171;-49
2022/08/31 04:48:24;;;;;;;;;7.00;7.00;;;;;;;;5075225;28;53023;-49
2022/08/31 04:50:49;;;;;;;;;8.00;7.67;;;;;;;;5085065;27;50907;-49
2022/08/31 04:53:15;;;;;;;;;7.00;7.00;;;;;;;;5076041;27;51141;-49
2022/08/31 04:55:40;;;;;;;;;5.00;5.00;;;;;;;;5071663;27;51095;-48
2022/08/31 04:58:05;;;;;;;;;5.33;5.33;;;;;;;;5086478;27;52366;-49
2022/08/31 05:00:31;;;;;;;;;6.33;6.33;;;;;;;;5075146;27;51012;-51
2022/08/31 05:02:56;;;;;;;;;8.00;7.00;;;;;;;;5076931;27;52257;-50
2022/08/31 05:05:21;;;;;;;;;7.00;6.67;;;;;;;;5072073;27;51167;-52
2022/08/31 05:07:46;;;;;;;;;7.00;6.00;;;;;;;;5069543;28;51520;-48
2022/08/31 05:10:12;;;;;;;;;6.67;6.67;;;;;;;;5075117;28;50970;-48
2022/08/31 05:12:37;;;;;;;;;7.33;7.33;;;;;;;;5077988;27;51150;-48
2022/08/31 05:15:02;;;;;;;;;8.33;7.33;;;;;;;;5068434;27;51278;-48
2022/08/31 05:17:27;;;;;;;;;6.33;6.00;;;;;;;;5079442;27;52323;-51
2022/08/31 05:19:53;;;;;;;;;7.67;7.33;;;;;;;;5073767;27;50976;-50
2022/08/31 05:22:18;;;;;;;;;5.67;5.67;;;;;;;;5074841;27;51065;-49
2022/08/31 05:24:44;;;;;;;;;9.00;9.00;;;;;;;;5076738;27;51351;-50
2022/08/31 05:27:09;;;;;;;;;5.67;5.67;;;;;;;;5072573;27;51654;-51
2022/08/31 05:29:34;;;;;;;;;9.00;8.00;;;;;;;;5074262;28;51004;-53
2022/08/31 05:31:59;;;;;;;;;5.67;5.67;;;;;;;;5063124;28;50935;-51
2022/08/31 05:34:25;;;;;;;;;9.00;8.00;;;;;;;;5086767;27;51399;-51
2022/08/31 05:36:51;;;;;;;;;7.33;7.33;;;;;;;;5077789;27;52650;-51
2022/08/31 05:39:17;;;;;;;;;6.67;5.67;;;;;;;;5076729;27;51037;-50
2022/08/31 05:41:43;;;;;;;;;8.67;8.33;;;;;;;;5069684;27;51136;-51
2022/08/31 05:44:09;;;;;;;;;5.67;5.67;;;;;;;;5070268;27;51120;-49
2022/08/31 05:46:34;;;;;;;;;8.33;8.33;;;;;;;;5067232;27;51700;-51
2022/08/31 05:49:00;;;;;;;;;7.67;7.67;;;;;;;;5074124;27;51193;-49
2022/08/31 05:51:25;;;;;;;;;8.33;8.00;;;;;;;;5066831;28;50948;-51
2022/08/31 05:53:51;;;;;;;;;7.33;6.00;;;;;;;;5074800;28;51295;-50
2022/08/31 05:56:17;;;;;;;;;9.00;9.00;;;;;;;;5073305;27;52051;-49
2022/08/31 05:58:43;;;;;;;;;8.67;8.67;;;;;;;;5074942;27;51077;-51
2022/08/31 06:01:15;;;;;;;;;9.00;8.00;;;;;;;;5066648;27;51685;-50
2022/08/31 06:03:41;;;;;;;;;9.00;9.00;;;;;;;;5070474;27;51410;-50
2022/08/31 06:06:08;;;;;;;;;11.67;9.67;;;;;;;;5073173;27;51986;-50
2022/08/31 06:08:35;;;;;;;;;8.00;7.67;;;;;;;;5077324;27;51157;-49
2022/08/31 06:11:00;;;;;;;;;8.00;8.00;;;;;;;;5073615;28;50897;-48
2022/08/31 06:13:25;;;;;;;;;8.00;8.00;;;;;;;;5072575;28;51158;-49
2022/08/31 06:15:51;;;;;;;;;6.33;6.33;;;;;;;;5070137;27;51983;-49
2022/08/31 06:18:19;;;;;;;;;10.00;8.00;;;;;;;;5072220;28;50831;-49
2022/08/31 06:20:44;;;;;;;;;7.67;7.00;;;;;;;;5073952;27;51182;-47
2022/08/31 06:23:10;;;;;;;;;7.00;7.00;;;;;;;;5071890;28;51417;-50
2022/08/31 06:25:35;;;;;;;;;4.67;4.67;;;;;;;;5076063;27;51300;-47
2022/08/31 06:28:01;;;;;;;;;6.67;6.67;;;;;;;;5073595;27;50903;-48
2022/08/31 06:30:26;;;;;;;;;5.33;5.33;;;;;;;;5073423;28;50993;-48
2022/08/31 06:32:52;;;;;;;;;9.33;9.33;;;;;;;;5079883;27;50997;-47
2022/08/31 06:35:18;;;;;;;;;7.33;7.33;;;;;;;;5066214;27;53034;-46
2022/08/31 06:37:44;;;;;;;;;6.67;6.67;;;;;;;;5063730;28;50964;-48
2022/08/31 06:40:09;;;;;;;;;8.00;8.00;;;;;;;;5064472;27;50933;-49
2022/08/31 06:42:34;;;;;;;;;7.00;7.00;;;;;;;;5076043;27;51206;-48
2022/08/31 06:45:00;;;;;;;;;8.00;8.00;;;;;;;;5071013;28;51234;-47
2022/08/31 06:47:25;;;;;;;;;6.67;5.67;;;;;;;;5073356;28;51051;-46
2022/08/31 06:49:51;;;;;;;;;11.00;11.00;;;;;;;;5073429;28;51122;-47
2022/08/31 06:52:16;;;;;;;;;7.67;7.67;;;;;;;;5074487;27;51288;-47
2022/08/31 06:54:42;;;;;;;;;7.67;7.00;;;;;;;;5059887;27;51023;-49
2022/08/31 06:57:07;;;;;;;;;7.67;7.33;;;;;;;;5080174;27;51108;-47
2022/08/31 06:59:32;;;;;;;;;8.00;8.00;;;;;;;;5073099;28;50981;-50
2022/08/31 07:01:58;;;;;;;;;7.33;7.33;;;;;;;;5081598;27;51022;-48
2022/08/31 07:04:25;;;;;;;;;6.67;6.00;;;;;;;;5077028;27;51333;-51
2022/08/31 07:06:50;;;;;;;;;10.00;10.00;;;;;;;;5072126;28;51092;-49
2022/08/31 07:09:17;;;;;;;;;10.00;8.67;;;;;;;;5073080;27;51774;-47
2022/08/31 07:11:44;;;;;;;;;6.00;6.00;;;;;;;;5075105;27;50922;-50
2022/08/31 07:14:13;;;;;;;;;7.00;6.33;;;;;;;;5073515;27;52085;-49
2022/08/31 07:16:38;;;;;;;;;7.00;7.00;;;;;;;;5081314;27;51100;-47
2022/08/31 07:19:05;;;;;;;;;8.67;8.00;;;;;;;;5075074;27;51177;-47
2022/08/31 07:21:34;;;;;;;;;8.00;8.00;;;;;;;;5074198;27;51304;-48
2022/08/31 07:24:01;;;;;;;;;10.67;9.33;;;;;;;;5072288;28;52775;-50
2022/08/31 07:26:28;;;;;;;;;7.00;6.33;;;;;;;;5077482;27;51090;-47
2022/08/31 07:28:54;;;;;;;;;8.00;7.00;;;;;;;;5073854;27;51072;-48
2022/08/31 07:31:21;;;;;;;;;7.67;7.67;;;;;;;;5072579;27;50910;-49
2022/08/31 07:33:47;;;;;;;;;11.00;10.33;;;;;;;;5070509;27;51148;-48
2022/08/31 07:36:14;;;;;;;;;8.00;8.00;;;;;;;;5072064;28;51461;-47
2022/08/31 07:44:00;;;;;;;;;7.00;6.67;;;;;;;;5072223;27;51051;-47
2022/08/31 07:46:30;;;;;;;;;8.00;8.00;;;;;;;;5070865;28;51014;-46
2022/08/31 07:48:55;;;;;;;;;9.33;8.00;;;;;;;;5072501;27;51028;-48
2022/08/31 07:51:22;;;;;;;;;6.00;6.00;;;;;;;;5072058;27;50974;-51
2022/08/31 07:53:47;;;;;;;;;10.67;10.67;;;;;;;;5071676;27;51197;-47
2022/08/31 07:56:15;;;;;;;;;14.00;14.00;;;;;;;;5071603;28;51088;-49
2022/08/31 07:58:41;;;;;;;;;15.75;15.75;;;;;;;;5072379;28;50800;-46
2022/08/31 08:01:06;;;;;;;;;8.67;8.33;;;;;;;;5072231;27;51361;-48
2022/08/31 08:03:32;;;;;;;;;6.00;6.00;;;;;;;;5071880;28;51531;-49
2022/08/31 08:05:57;;;;;;;;;9.00;9.00;;;;;;;;5072430;28;50993;-50
2022/08/31 08:08:23;;;;;;;;;11.33;10.33;;;;;;;;5075814;27;51112;-47
2022/08/31 08:10:49;;;;;;;;;11.00;10.00;;;;;;;;5076078;28;50961;-51
2022/08/31 08:13:18;;;;;;;;;11.67;11.33;;;;;;;;5075351;27;51794;-48
2022/08/31 08:15:44;;;;;;;;;8.00;7.00;;;;;;;;5074218;28;51107;-49
2022/08/31 08:18:11;;;;;;;;;10.33;10.00;;;;;;;;5074435;28;51052;-50
2022/08/31 08:20:37;;;;;;;;;9.00;8.00;;;;;;;;5075753;27;51029;-50
2022/08/31 08:23:05;;;;;;;;;8.00;8.00;;;;;;;;5075062;27;51949;-50
2022/08/31 08:25:33;;;;;;;;;7.00;7.00;;;;;;;;5074995;27;50960;-47
2022/08/31 08:27:58;;;;;;;;;10.67;10.67;;;;;;;;5073941;28;51120;-47
2022/08/31 08:30:24;;;;;;;;;10.00;10.00;;;;;;;;5075340;27;50937;-47
2022/08/31 08:32:49;;;;;;;;;12.00;11.33;;;;;;;;5074840;27;52188;-49
2022/08/31 08:35:15;;;;;;;;;11.67;11.67;;;;;;;;5074836;27;50927;-48
2022/08/31 08:37:41;;;;;;;;;10.00;10.00;;;;;;;;5068200;27;51049;-48
2022/08/31 08:40:12;;;;;;;;;13.50;13.25;;;;;;;;5075180;28;51209;-46
2022/08/31 08:42:37;;;;;;;;;8.33;8.33;;;;;;;;5075001;27;52837;-54
2022/08/31 08:45:03;;;;;;;;;9.00;9.00;;;;;;;;5075075;28;51057;-49
2022/08/31 08:47:30;;;;;;;;;12.67;11.67;;;;;;;;5075091;27;50974;-47
2022/08/31 08:49:59;;;;;;;;;9.00;9.00;;;;;;;;5074951;28;50854;-50
2022/08/31 08:52:27;;;;;;;;;8.67;8.67;;;;;;;;5074179;28;52827;-50
2022/08/31 08:54:53;;;;;;;;;11.00;10.00;;;;;;;;5075001;27;51072;-50
2022/08/31 08:57:26;;;;;;;;;10.00;10.00;;;;;;;;5074918;28;50989;-48
2022/08/31 08:59:54;;;;;;;;;10.33;10.33;;;;;;;;5074726;28;51334;-49
2022/08/31 09:02:22;;;;;;;;;10.33;10.00;;;;;;;;5074088;28;52284;-49
2022/08/31 09:04:58;;;;;;;;;7.33;7.33;;;;;;;;5061166;28;51021;-51
2022/08/31 09:07:49;;;;;;;;;7.00;7.00;;;;;;;;5073081;28;51045;-47
2022/08/31 09:10:33;;;;;;;;;11.00;10.50;;;;;;;;5066041;28;50897;-48
2022/08/31 09:13:00;;;;;;;;;8.67;8.00;;;;;;;;5074404;27;51835;-47
2022/08/31 09:15:35;;;;;;;;;9.00;9.00;;;;;;;;5073122;28;50827;-50
2022/08/31 09:18:19;;;;;;;;;9.33;9.00;;;;;;;;5073036;28;51231;-51
2022/08/31 09:21:05;;;;;;;;;9.33;9.00;;;;;;;;5074057;27;50914;-48
2022/08/31 09:23:34;;;;;;;;;8.00;8.00;;;;;;;;5064879;27;53047;-51
2022/08/31 09:26:01;;;;;;;;;10.50;10.00;;;;;;;;5074314;28;51074;-53
2022/08/31 09:28:37;;;;;;;;;9.00;9.00;;;;;;;;5073846;28;51054;-48
2022/08/31 09:31:03;;;;;;;;;9.25;8.50;;;;;;;;5074299;28;51035;-50
2022/08/31 09:33:30;;;;;;;;;9.25;8.00;;;;;;;;5073097;27;51179;-49
2022/08/31 09:36:13;;;;;;;;;9.25;9.00;;;;;;;;5073685;28;51020;-49
2022/08/31 09:38:39;;;;;;;;;10.00;9.00;;;;;;;;5073978;28;51047;-51
2022/08/31 09:41:24;;;;;;;;;11.33;10.33;;;;;;;;5074094;28;50907;-46
2022/08/31 09:43:49;;;;;;;;;3.25;3.25;;;;;;;;5069826;27;51203;-55
2022/08/31 09:46:26;;;;;;;;;9.75;9.75;;;;;;;;5074034;28;50958;-49
2022/08/31 09:48:55;;;;;;;;;13.75;12.75;;;;;;;;5074220;28;50843;-48
2022/08/31 09:51:20;;;;;;;;;11.00;10.25;;;;;;;;5073578;28;51144;-48
2022/08/31 09:56:29;;;;;;;;;9.25;9.00;;;;;;;;5073291;28;51349;-49
2022/08/31 09:59:00;;;;;;;;;9.50;9.25;;;;;;;;5073318;28;51202;-49
2022/08/31 10:01:25;;;;;;;;;13.75;13.25;;;;;;;;5072379;27;51227;-49
2022/08/31 10:04:06;;;;;;;;;11.00;10.00;;;;;;;;5071830;28;52728;-47
2022/08/31 10:06:44;;;;;;;;;8.33;8.33;;;;;;;;5072763;28;50999;-51
2022/08/31 10:09:19;;;;;;;;;13.25;12.75;;;;;;;;5073156;28;51067;-49
2022/08/31 10:11:46;;;;;;;;;10.00;10.00;;;;;;;;5073582;28;51258;-50
2022/08/31 10:14:19;;;;;;;;;13.00;12.25;;;;;;;;5072693;28;53717;-46
2022/08/31 10:16:47;;;;;;;;;8.33;8.00;;;;;;;;5073359;28;51038;-47
2022/08/31 10:19:16;;;;;;;;;8.33;8.33;;;;;;;;5073094;28;51136;-47
2022/08/31 10:21:58;;;;;;;;;8.50;8.50;;;;;;;;5054925;28;51070;-52
2022/08/31 10:24:32;;;;;;;;;11.33;10.33;;;;;;;;5072968;28;51242;-50
2022/08/31 10:27:07;;;;;;;;;7.00;7.00;;;;;;;;5073308;28;51008;-51
2022/08/31 10:29:38;;;;;;;;;10.00;9.33;;;;;;;;5072426;28;50928;-49
2022/08/31 10:32:08;;;;;;;;;8.33;8.33;;;;;;;;5073232;28;51258;-49
2022/08/31 10:37:42;;;;;;;;;10.33;10.33;;;;;;;;5065921;27;51171;-50
2022/08/31 10:40:11;;;;;;;;;11.33;10.00;;;;;;;;5072720;28;51167;-49
2022/08/31 10:42:38;;;;;;;;;13.00;13.00;;;;;;;;5073207;28;51056;-50
2022/08/31 10:45:17;;;;;;;;;11.00;10.50;;;;;;;;5072470;28;51925;-47
2022/08/31 10:47:45;;;;;;;;;9.33;9.00;;;;;;;;5072876;28;51033;-48
2022/08/31 10:50:12;;;;;;;;;6.67;6.67;;;;;;;;5072789;28;50912;-47
2022/08/31 10:53:10;;;;;;;;;11.00;9.67;;;;;;;;5072679;28;50865;-50
2022/08/31 10:55:54;;;;;;;;;8.00;8.00;;;;;;;;5059885;28;51129;-49
2022/08/31 10:58:26;;;;;;;;;10.00;10.00;;;;;;;;5054263;28;51229;-50
2022/08/31 11:01:17;;;;;;;;;12.00;10.25;;;;;;;;5072515;28;51136;-49
2022/08/31 11:03:45;;;;;;;;;9.67;9.67;;;;;;;;5047113;28;51294;-47
2022/08/31 11:06:11;;;;;;;;;10.67;10.67;;;;;;;;5071510;28;51799;-48
2022/08/31 11:08:36;;;;;;;;;8.00;7.00;;;;;;;;5072080;28;51195;-54
2022/08/31 11:11:05;;;;;;;;;10.33;10.00;;;;;;;;5072239;27;50830;-50
2022/08/31 11:13:42;;;;;;;;;12.00;11.00;;;;;;;;5072366;28;51075;-50
2022/08/31 11:16:20;;;;;;;;;12.25;11.75;;;;;;;;5071638;28;51156;-50
2022/08/31 11:19:06;;;;;;;;;10.00;10.00;;;;;;;;5071677;27;51282;-48
2022/08/31 11:21:37;;;;;;;;;9.00;9.00;;;;;;;;5071674;27;50975;-51
2022/08/31 11:24:14;;;;;;;;;10.00;10.00;;;;;;;;5072063;28;51028;-49
2022/08/31 11:26:45;;;;;;;;;9.33;8.67;;;;;;;;5071689;28;52014;-48
2022/08/31 11:29:40;;;;;;;;;9.00;8.67;;;;;;;;5070293;28;51107;-50
2022/08/31 11:32:18;;;;;;;;;12.00;12.00;;;;;;;;5069427;27;51066;-48
2022/08/31 11:34:46;;;;;;;;;11.67;11.67;;;;;;;;5071258;28;51305;-49
2022/08/31 11:37:12;;;;;;;;;12.00;11.00;;;;;;;;5068757;28;53693;-49
2022/08/31 11:39:43;;;;;;;;;11.33;11.33;;;;;;;;5070509;28;50926;-49
2022/08/31 11:42:09;;;;;;;;;9.67;9.67;;;;;;;;5070638;27;51086;-51
2022/08/31 11:44:35;;;;;;;;;9.00;9.00;;;;;;;;5071138;28;51082;-48
2022/08/31 11:47:08;;;;;;;;;12.33;12.00;;;;;;;;5070615;28;51133;-45
2022/08/31 11:49:44;;;;;;;;;15.33;15.33;;;;;;;;5071032;27;51099;-47
2022/08/31 11:52:23;;;;;;;;;9.33;9.33;;;;;;;;5071057;27;51132;-51
2022/08/31 11:54:49;;;;;;;;;12.00;12.00;;;;;;;;5071574;28;51008;-48
2022/08/31 11:57:19;;;;;;;;;10.67;10.67;;;;;;;;5071111;28;51761;-49
2022/08/31 11:59:46;;;;;;;;;11.00;9.00;;;;;;;;5071030;28;50992;-50
2022/08/31 12:02:21;;;;;;;;;11.33;11.33;;;;;;;;5070823;28;51170;-50
2022/08/31 12:04:56;;;;;;;;;11.00;10.67;;;;;;;;5071517;27;50941;-51
2022/08/31 12:07:30;;;;;;;;;9.33;8.67;;;;;;;;5070245;27;51347;-49
2022/08/31 12:10:13;;;;;;;;;11.67;11.67;;;;;;;;5071244;28;51040;-48
2022/08/31 12:12:48;;;;;;;;;12.67;12.00;;;;;;;;5070925;28;51317;-47
2022/08/31 12:15:18;;;;;;;;;10.00;10.00;;;;;;;;5071127;28;50924;-48
2022/08/31 12:17:45;;;;;;;;;12.00;11.33;;;;;;;;5070364;28;51038;-47
2022/08/31 12:20:13;;;;;;;;;9.67;9.67;;;;;;;;5071033;28;51041;-48
2022/08/31 12:25:40;;;;;;;;;11.67;10.33;;;;;;;;5071400;28;51019;-48
2022/08/31 12:28:23;;;;;;;;;13.00;13.00;;;;;;;;5071375;28;51009;-47
2022/08/31 12:30:55;;;;;;;;;12.67;12.00;;;;;;;;5071415;28;50869;-49
2022/08/31 12:33:24;;;;;;;;;12.33;11.67;;;;;;;;5070820;27;51096;-50
2022/08/31 12:35:55;;;;;;;;;12.00;12.00;;;;;;;;5071106;27;51182;-48
2022/08/31 12:38:21;;;;;;;;;11.00;11.00;;;;;;;;5065568;27;51690;-47
2022/08/31 12:40:49;;;;;;;;;11.33;11.00;;;;;;;;5070744;28;50943;-48
2022/08/31 12:43:17;;;;;;;;;15.75;14.50;;;;;;;;5071368;28;51101;-47
2022/08/31 12:45:45;;;;;;;;;10.67;10.67;;;;;;;;5070015;28;51367;-51
2022/08/31 12:48:20;;;;;;;;;11.00;11.00;;;;;;;;5070960;28;52075;-48
2022/08/31 12:50:55;;;;;;;;;9.67;9.67;;;;;;;;5070706;28;51061;-47
2022/08/31 12:53:42;;;;;;;;;12.33;12.00;;;;;;;;5073490;28;51240;-48
2022/08/31 12:56:12;;;;;;;;;13.67;12.67;;;;;;;;5073103;28;51119;-48
2022/08/31 12:58:50;;;;;;;;;13.00;13.00;;;;;;;;5073828;28;51155;-45
2022/08/31 13:01:19;;;;;;;;;11.00;11.00;;;;;;;;5072712;28;51098;-47
2022/08/31 13:03:47;;;;;;;;;10.00;10.00;;;;;;;;5074001;28;50969;-51
2022/08/31 13:06:14;;;;;;;;;11.00;11.00;;;;;;;;5074171;28;51279;-50
2022/08/31 13:08:43;;;;;;;;;12.33;11.67;;;;;;;;5073762;28;51080;-47
2022/08/31 13:11:27;;;;;;;;;12.00;12.00;;;;;;;;5074182;28;50973;-47
2022/08/31 13:13:53;;;;;;;;;13.67;12.33;;;;;;;;5074501;28;51215;-48
2022/08/31 13:16:19;;;;;;;;;10.33;10.33;;;;;;;;5074199;28;50799;-47
2022/08/31 13:18:45;;;;;;;;;11.33;11.33;;;;;;;;5073702;28;51735;-47
2022/08/31 13:21:11;;;;;;;;;13.00;13.00;;;;;;;;5072127;28;51003;-48
2022/08/31 13:23:47;;;;;;;;;11.67;11.00;;;;;;;;5074167;27;51096;-50
2022/08/31 13:26:21;;;;;;;;;11.00;11.00;;;;;;;;5072773;28;51178;-49
2022/08/31 13:28:52;;;;;;;;;10.00;10.00;;;;;;;;5073663;27;52320;-48
2022/08/31 13:31:20;;;;;;;;;15.33;14.67;;;;;;;;5073746;27;51051;-49
2022/08/31 13:33:46;;;;;;;;;11.67;11.67;;;;;;;;5060234;27;51043;-49
2022/08/31 13:36:11;;;;;;;;;11.67;11.67;;;;;;;;5073252;28;51307;-49
2022/08/31 13:38:44;;;;;;;;;12.33;11.67;;;;;;;;5073425;28;51078;-50
2022/08/31 13:41:27;;;;;;;;;13.25;13.00;;;;;;;;5074008;28;51096;-51
2022/08/31 13:44:00;;;;;;;;;12.00;12.00;;;;;;;;5073676;27;50997;-50
2022/08/31 13:46:37;;;;;;;;;11.75;11.00;;;;;;;;5073834;27;50885;-46
2022/08/31 13:49:05;;;;;;;;;13.00;11.67;;;;;;;;5073228;28;50844;-50
2022/08/31 13:51:32;;;;;;;;;12.67;12.00;;;;;;;;5071589;28;51184;-47
2022/08/31 13:54:02;;;;;;;;;10.50;10.25;;;;;;;;5071966;28;50933;-47
2022/08/31 13:59:23;;;;;;;;;12.75;12.75;;;;;;;;5073276;28;50891;-49
2022/08/31 14:01:49;;;;;;;;;12.00;12.00;;;;;;;;5073142;27;52247;-50
2022/08/31 14:07:15;;;;;;;;;14.50;14.50;;;;;;;;5051418;28;51196;-49
2022/08/31 14:09:43;;;;;;;;;12.00;12.00;;;;;;;;5059781;28;51249;-49
2022/08/31 14:12:09;;;;;;;;;14.00;13.67;;;;;;;;5073058;28;50931;-48
2022/08/31 14:14:42;;;;;;;;;11.75;11.75;;;;;;;;5073400;28;51252;-47
2022/08/31 14:17:14;;;;;;;;;13.67;12.33;;;;;;;;5055652;27;51739;-48
2022/08/31 14:19:40;;;;;;;;;11.00;10.00;;;;;;;;5061330;27;51301;-51
2022/08/31 14:22:24;;;;;;;;;13.00;12.33;;;;;;;;5061314;28;51126;-52
2022/08/31 14:24:49;;;;;;;;;14.50;13.00;;;;;;;;5068658;28;50990;-51
2022/08/31 14:27:16;;;;;;;;;13.00;12.00;;;;;;;;5065904;27;51377;-53
2022/08/31 14:29:41;;;;;;;;;16.25;15.75;;;;;;;;5068594;28;51629;-50
2022/08/31 14:32:06;;;;;;;;;13.75;13.75;;;;;;;;5070275;28;50857;-52
2022/08/31 14:34:35;;;;;;;;;13.00;13.00;;;;;;;;5072436;27;50949;-52
2022/08/31 14:37:05;;;;;;;;;14.00;14.00;;;;;;;;5067251;28;51312;-50
2022/08/31 14:39:40;;;;;;;;;14.50;14.50;;;;;;;;5069719;28;53035;-52
2022/08/31 14:42:26;;;;;;;;;13.50;13.50;;;;;;;;5063988;28;51025;-49
2022/08/31 14:45:03;;;;;;;;;15.50;14.25;;;;;;;;5064443;28;50933;-48
2022/08/31 14:47:31;;;;;;;;;13.75;13.75;;;;;;;;5066371;28;51139;-47
2022/08/31 14:50:04;;;;;;;;;13.33;13.00;;;;;;;;5072035;28;52228;-49
2022/08/31 14:52:32;;;;;;;;;14.00;13.75;;;;;;;;5070178;28;51175;-51
2022/08/31 14:54:59;;;;;;;;;12.67;12.33;;;;;;;;5063874;27;51444;-51
2022/08/31 14:57:25;;;;;;;;;14.00;13.25;;;;;;;;5063117;27;51239;-49
2022/08/31 14:59:56;;;;;;;;;16.75;16.00;;;;;;;;5070606;27;52005;-47
2022/08/31 15:02:22;;;;;;;;;13.00;13.00;;;;;;;;5069811;28;51145;-50